Five Points, California
Current Conditions -  °F | °C
As of 7:56 AM on Thursday 23 Oct 2014 (Local Time) from KNLC Reporting Station
Broken Clouds Broken Clouds  
Wind Chill: 48°   Ceiling: 23000
Heat Index: 48°   Visibility: 9mi
Dew Point: 44°   Wind: 0mph
Humidity: 86%   Direction: NA
Pressure: 30.04"   Gusts: NA
Location:  36.42°N, 120.1°W
Report Text: KNLC 231456Z 00000KT 9SM SCT180 BKN230 09/07 A3004 RMK AO2 SLP174 RH/86 T00890067 51012 $
Loading
Personal Weather Stations






























Interactive Weather Map
Tropical Storm Tracking
New forecast layout! Learn more

10-Day Weather Forecast

Advertisements
Track Severe Weather on mobile